Аэропорт: Кокшетау. Кокшетау

ICAO: UACK

METAR:
Информация по данной станции не доступна
TAF:
2024-07-24 11:06:00
TAF UACK 241106Z 2412/2421 35005G10MPS 9999 BKN025 OVC100 
  TEMPO 2412/2418 32006MPS 3100 -SHRA BR BKN005 BKN015CB